Starks, Wisconsin
Current Conditions -  °F | °C
As of 2:53 AM on Monday 20 Oct 2014 (Local Time) from KRHI Reporting Station
Clear Clear  
Wind Chill: 45°   Ceiling: Unl
Heat Index: 45°   Visibility: 10mi
Dew Point: 41°   Wind: 3mph
Humidity: 86%   Direction: 330°NNW
Pressure: 29.78"   Gusts: NA
Location:  45.6521°N, 89.3386°W
Report Text: KRHI 200753Z AUTO 33003KT 10SM CLR 07/05 A2978 RMK AO2 SLP091 T00720050
Loading
Personal Weather Stations






























Interactive Weather Map
Tropical Storm Tracking
New forecast layout! Learn more

10-Day Weather Forecast

Advertisements
Track Severe Weather on mobile